sensor_id;sensor_type;location;lat;lon;timestamp;pressure;altitude;pressure_sealevel;temperature;humidity
48035;BME280;33812;46.480;6.834;2023-01-28T00:03:27;93499.06;;;19.36;28.82
48035;BME280;33812;46.480;6.834;2023-01-28T00:07:30;93500.97;;;19.39;28.78
48035;BME280;33812;46.480;6.834;2023-01-28T00:11:32;93498.72;;;19.33;29.00
48035;BME280;33812;46.480;6.834;2023-01-28T00:15:34;93500.28;;;19.35;29.10
48035;BME280;33812;46.480;6.834;2023-01-28T00:19:35;93498.72;;;19.33;28.88
48035;BME280;33812;46.480;6.834;2023-01-28T00:23:40;93510.09;;;19.36;28.61
48035;BME280;33812;46.480;6.834;2023-01-28T00:27:43;93510.53;;;19.34;28.76
48035;BME280;33812;46.480;6.834;2023-01-28T00:31:45;93495.97;;;19.33;28.82
48035;BME280;33812;46.480;6.834;2023-01-28T00:35:46;93494.44;;;19.32;28.32
48035;BME280;33812;46.480;6.834;2023-01-28T00:39:50;93482.19;;;19.33;28.44
48035;BME280;33812;46.480;6.834;2023-01-28T00:43:52;93488.91;;;19.32;28.52
48035;BME280;33812;46.480;6.834;2023-01-28T00:47:54;93484.63;;;19.31;28.92
48035;BME280;33812;46.480;6.834;2023-01-28T00:51:55;93494.44;;;19.32;28.58
48035;BME280;33812;46.480;6.834;2023-01-28T00:55:58;93478.69;;;19.33;29.05
48035;BME280;33812;46.480;6.834;2023-01-28T01:00:00;93474.78;;;19.30;28.56
48035;BME280;33812;46.480;6.834;2023-01-28T01:04:03;93481.44;;;19.33;28.89
48035;BME280;33812;46.480;6.834;2023-01-28T01:08:05;93474.78;;;19.30;28.64
48035;BME280;33812;46.480;6.834;2023-01-28T01:12:08;93474.78;;;19.30;28.75
48035;BME280;33812;46.480;6.834;2023-01-28T01:16:11;93483.06;;;19.30;28.83
48035;BME280;33812;46.480;6.834;2023-01-28T01:20:14;93475.22;;;19.29;28.99
48035;BME280;33812;46.480;6.834;2023-01-28T01:24:16;93471.69;;;19.28;29.09
48035;BME280;33812;46.480;6.834;2023-01-28T01:28:20;93481.63;;;19.26;28.69
48035;BME280;33812;46.480;6.834;2023-01-28T01:32:22;93481.53;;;19.29;29.27
48035;BME280;33812;46.480;6.834;2023-01-28T01:36:24;93478.41;;;19.27;28.90
48035;BME280;33812;46.480;6.834;2023-01-28T01:40:27;93474.44;;;19.28;29.00
48035;BME280;33812;46.480;6.834;2023-01-28T01:45:04;93478.41;;;19.27;29.14
48035;BME280;33812;46.480;6.834;2023-01-28T01:49:13;93487.78;;;19.30;28.86
48035;BME280;33812;46.480;6.834;2023-01-28T01:53:19;93480.75;;;19.29;28.76
48035;BME280;33812;46.480;6.834;2023-01-28T01:57:25;93475.66;;;19.27;28.68
48035;BME280;33812;46.480;6.834;2023-01-28T02:01:30;93474.53;;;19.25;28.79
48035;BME280;33812;46.480;6.834;2023-01-28T02:05:32;93480.84;;;19.25;28.88
48035;BME280;33812;46.480;6.834;2023-01-28T02:09:35;93477.28;;;19.25;28.78
48035;BME280;33812;46.480;6.834;2023-01-28T02:13:41;93476.88;;;19.26;29.04
48035;BME280;33812;46.480;6.834;2023-01-28T02:17:47;93478.41;;;19.27;28.81
48035;BME280;33812;46.480;6.834;2023-01-28T02:22:10;93478.41;;;19.27;28.80
48035;BME280;33812;46.480;6.834;2023-01-28T02:30:51;93475.66;;;19.27;29.18
48035;BME280;33812;46.480;6.834;2023-01-28T02:35:00;93471.38;;;19.26;28.85
48035;BME280;33812;46.480;6.834;2023-01-28T02:39:08;93469.03;;;19.25;29.24
48035;BME280;33812;46.480;6.834;2023-01-28T02:43:13;93465.53;;;19.24;29.25
48035;BME280;33812;46.480;6.834;2023-01-28T02:47:17;93477.28;;;19.25;29.07
48035;BME280;33812;46.480;6.834;2023-01-28T02:52:02;93469.81;;;19.25;28.96
48035;BME280;33812;46.480;6.834;2023-01-28T02:56:17;93474.13;;;19.26;29.23
48035;BME280;33812;46.480;6.834;2023-01-28T03:00:25;93478.06;;;19.25;29.07
48035;BME280;33812;46.480;6.834;2023-01-28T03:04:33;93475.31;;;19.25;28.86
48035;BME280;33812;46.480;6.834;2023-01-28T03:08:43;93469.03;;;19.25;28.80
48035;BME280;33812;46.480;6.834;2023-01-28T03:13:03;93482.81;;;19.25;28.99
48035;BME280;33812;46.480;6.834;2023-01-28T03:17:25;93476.53;;;19.24;28.88
48035;BME280;33812;46.480;6.834;2023-01-28T03:21:48;93476.53;;;19.24;29.15
48035;BME280;33812;46.480;6.834;2023-01-28T03:26:08;93483.25;;;19.23;29.18
48035;BME280;33812;46.480;6.834;2023-01-28T03:30:35;93476.53;;;19.24;29.19
48035;BME280;33812;46.480;6.834;2023-01-28T03:34:57;93476.78;;;19.30;29.42
48035;BME280;33812;46.480;6.834;2023-01-28T03:39:18;93489.63;;;19.37;29.10
48035;BME280;33812;46.480;6.834;2023-01-28T03:43:22;93481.66;;;19.39;31.31
48035;BME280;33812;46.480;6.834;2023-01-28T03:47:26;93479.00;;;19.35;31.26
48035;BME280;33812;46.480;6.834;2023-01-28T03:51:28;93479.78;;;19.36;31.42
48035;BME280;33812;46.480;6.834;2023-01-28T03:55:31;93484.50;;;19.35;31.13
48035;BME280;33812;46.480;6.834;2023-01-28T03:59:34;93489.28;;;19.35;31.11
48035;BME280;33812;46.480;6.834;2023-01-28T04:03:36;93486.94;;;19.33;31.04
48035;BME280;33812;46.480;6.834;2023-01-28T04:07:38;93491.25;;;19.34;31.05
48035;BME280;33812;46.480;6.834;2023-01-28T04:11:42;93481.44;;;19.33;30.63
48035;BME280;33812;46.480;6.834;2023-01-28T04:15:44;93502.69;;;19.32;30.98
48035;BME280;33812;46.480;6.834;2023-01-28T04:19:46;93501.56;;;19.30;30.78
48035;BME280;33812;46.480;6.834;2023-01-28T04:23:47;93492.53;;;19.29;30.81
48035;BME280;33812;46.480;6.834;2023-01-28T04:27:51;93489.78;;;19.29;30.55
48035;BME280;33812;46.480;6.834;2023-01-28T04:31:52;93502.44;;;19.27;30.37
48035;BME280;33812;46.480;6.834;2023-01-28T04:35:54;93496.19;;;19.26;30.19
48035;BME280;33812;46.480;6.834;2023-01-28T04:39:56;93502.88;;;19.25;30.12
48035;BME280;33812;46.480;6.834;2023-01-28T04:43:59;93500.91;;;19.26;30.43
48035;BME280;33812;46.480;6.834;2023-01-28T04:48:00;93510.72;;;19.27;30.33
48035;BME280;33812;46.480;6.834;2023-01-28T04:52:02;93506.84;;;19.24;30.00
48035;BME280;33812;46.480;6.834;2023-01-28T04:56:04;93512.34;;;19.24;29.91
48035;BME280;33812;46.480;6.834;2023-01-28T05:00:08;93513.97;;;19.21;30.23
48035;BME280;33812;46.480;6.834;2023-01-28T05:04:10;93512.78;;;19.23;30.01
48035;BME280;33812;46.480;6.834;2023-01-28T05:08:11;93517.53;;;19.22;29.99
48035;BME280;33812;46.480;6.834;2023-01-28T05:12:13;93517.88;;;19.24;29.96
48035;BME280;33812;46.480;6.834;2023-01-28T05:16:16;93519.50;;;19.21;29.58
48035;BME280;33812;46.480;6.834;2023-01-28T05:20:18;93521.81;;;19.23;29.99
48035;BME280;33812;46.480;6.834;2023-01-28T05:24:20;93530.06;;;19.23;29.65
48035;BME280;33812;46.480;6.834;2023-01-28T05:28:21;93525.00;;;19.21;29.70
48035;BME280;33812;46.480;6.834;2023-01-28T05:32:25;93532.84;;;19.23;29.89
48035;BME280;33812;46.480;6.834;2023-01-28T05:36:26;93539.22;;;19.20;29.79
48035;BME280;33812;46.480;6.834;2023-01-28T05:40:28;93535.25;;;19.21;29.45
48035;BME280;33812;46.480;6.834;2023-01-28T05:44:30;93540.00;;;19.20;29.31
48035;BME280;33812;46.480;6.834;2023-01-28T05:48:33;93549.44;;;19.19;29.74
48035;BME280;33812;46.480;6.834;2023-01-28T05:52:34;93542.41;;;19.18;29.20
48035;BME280;33812;46.480;6.834;2023-01-28T05:56:36;93539.56;;;19.22;29.50
48035;BME280;33812;46.480;6.834;2023-01-28T06:00:39;93538.03;;;19.21;29.49
48035;BME280;33812;46.480;6.834;2023-01-28T06:04:42;93553.84;;;19.17;29.35
48035;BME280;33812;46.480;6.834;2023-01-28T06:08:44;93549.88;;;19.18;29.72
48035;BME280;33812;46.480;6.834;2023-01-28T06:12:46;93557.38;;;19.17;29.60
48035;BME280;33812;46.480;6.834;2023-01-28T06:16:47;93570.72;;;19.19;29.42
48035;BME280;33812;46.480;6.834;2023-01-28T06:20:52;93576.25;;;19.19;29.54
48035;BME280;33812;46.480;6.834;2023-01-28T06:24:53;93574.66;;;19.18;29.15
48035;BME280;33812;46.480;6.834;2023-01-28T06:28:55;93574.25;;;19.19;29.20
48035;BME280;33812;46.480;6.834;2023-01-28T06:32:57;93577.56;;;19.11;29.84
48035;BME280;33812;46.480;6.834;2023-01-28T06:37:00;93584.16;;;19.17;28.95
48035;BME280;33812;46.480;6.834;2023-01-28T06:41:03;93584.94;;;19.17;29.19
48035;BME280;33812;46.480;6.834;2023-01-28T06:45:06;93590.03;;;19.19;29.09
48035;BME280;33812;46.480;6.834;2023-01-28T06:49:08;93594.38;;;19.16;29.20
48035;BME280;33812;46.480;6.834;2023-01-28T06:53:11;93597.50;;;19.18;29.17
48035;BME280;33812;46.480;6.834;2023-01-28T06:57:12;93593.59;;;19.16;29.40
48035;BME280;33812;46.480;6.834;2023-01-28T07:01:14;93600.75;;;19.13;28.97
48035;BME280;33812;46.480;6.834;2023-01-28T07:05:16;93590.97;;;19.12;29.38
48035;BME280;33812;46.480;6.834;2023-01-28T07:09:19;93591.28;;;19.14;29.30
48035;BME280;33812;46.480;6.834;2023-01-28T07:13:21;93598.78;;;19.14;29.44
48035;BME280;33812;46.480;6.834;2023-01-28T07:17:22;93592.16;;;19.11;29.06
48035;BME280;33812;46.480;6.834;2023-01-28T07:21:24;93595.75;;;19.08;29.25
48035;BME280;33812;46.480;6.834;2023-01-28T07:25:27;93592.97;;;19.08;28.86
48035;BME280;33812;46.480;6.834;2023-01-28T07:29:30;93607.63;;;19.05;28.44
48035;BME280;33812;46.480;6.834;2023-01-28T07:33:33;93614.25;;;19.07;29.04
48035;BME280;33812;46.480;6.834;2023-01-28T07:37:35;93615.03;;;19.08;28.62
48035;BME280;33812;46.480;6.834;2023-01-28T07:41:38;93608.72;;;19.07;28.81
48035;BME280;33812;46.480;6.834;2023-01-28T07:45:39;93622.84;;;19.09;28.99
48035;BME280;33812;46.480;6.834;2023-01-28T07:49:41;93622.84;;;19.09;29.03
48035;BME280;33812;46.480;6.834;2023-01-28T07:53:43;93625.59;;;19.09;28.99
48035;BME280;33812;46.480;6.834;2023-01-28T07:57:50;93630.72;;;19.11;29.02
48035;BME280;33812;46.480;6.834;2023-01-28T08:01:52;93634.59;;;19.14;29.04
48035;BME280;33812;46.480;6.834;2023-01-28T08:05:55;93640.53;;;19.12;29.27
48035;BME280;33812;46.480;6.834;2023-01-28T08:09:57;93644.09;;;19.09;29.02
48035;BME280;33812;46.480;6.834;2023-01-28T08:14:00;93645.63;;;19.14;29.27
48035;BME280;33812;46.480;6.834;2023-01-28T08:18:02;93647.50;;;18.19;25.19
48035;BME280;33812;46.480;6.834;2023-01-28T08:22:05;93645.25;;;18.54;27.30
48035;BME280;33812;46.480;6.834;2023-01-28T08:26:07;93653.63;;;18.88;26.93
48035;BME280;33812;46.480;6.834;2023-01-28T08:30:11;93657.78;;;18.96;27.25
48035;BME280;33812;46.480;6.834;2023-01-28T08:34:13;93666.31;;;19.02;27.41
48035;BME280;33812;46.480;6.834;2023-01-28T08:38:14;93666.22;;;19.05;27.33
48035;BME280;33812;46.480;6.834;2023-01-28T08:42:17;93676.13;;;19.03;27.45
48035;BME280;33812;46.480;6.834;2023-01-28T08:46:20;93672.94;;;19.04;27.34
48035;BME280;33812;46.480;6.834;2023-01-28T08:50:23;93683.53;;;19.06;27.74
48035;BME280;33812;46.480;6.834;2023-01-28T08:54:25;93679.16;;;19.08;27.79
48035;BME280;33812;46.480;6.834;2023-01-28T08:58:27;93685.09;;;19.07;27.39
48035;BME280;33812;46.480;6.834;2023-01-28T09:02:30;93681.91;;;19.08;27.84
48035;BME280;33812;46.480;6.834;2023-01-28T09:06:33;93683.44;;;19.09;27.83
48035;BME280;33812;46.480;6.834;2023-01-28T09:10:35;93688.97;;;19.09;27.94
48035;BME280;33812;46.480;6.834;2023-01-28T09:14:37;93687.06;;;19.06;28.10
48035;BME280;33812;46.480;6.834;2023-01-28T09:18:40;93685.16;;;19.03;28.13
48035;BME280;33812;46.480;6.834;2023-01-28T09:22:42;93694.47;;;19.09;28.18
48035;BME280;33812;46.480;6.834;2023-01-28T09:26:44;93701.63;;;19.07;27.70
48035;BME280;33812;46.480;6.834;2023-01-28T09:30:45;93704.78;;;19.05;28.00
48035;BME280;33812;46.480;6.834;2023-01-28T09:34:49;93707.88;;;19.07;28.03
48035;BME280;33812;46.480;6.834;2023-01-28T09:38:50;93712.53;;;19.11;28.16
48035;BME280;33812;46.480;6.834;2023-01-28T09:47:23;93709.88;;;19.07;27.79
48035;BME280;33812;46.480;6.834;2023-01-28T09:51:31;93719.69;;;19.08;28.42
48035;BME280;33812;46.480;6.834;2023-01-28T09:55:37;93719.34;;;19.06;27.68
48035;BME280;33812;46.480;6.834;2023-01-28T09:59:40;93720.13;;;19.06;28.11
48035;BME280;33812;46.480;6.834;2023-01-28T10:03:51;93707.53;;;19.05;27.81
48035;BME280;33812;46.480;6.834;2023-01-28T10:08:05;93725.28;;;19.04;28.16
48035;BME280;33812;46.480;6.834;2023-01-28T10:12:22;93726.06;;;19.05;28.34
48035;BME280;33812;46.480;6.834;2023-01-28T10:16:30;93737.84;;;19.05;28.22
48035;BME280;33812;46.480;6.834;2023-01-28T10:20:37;93739.47;;;19.03;27.69
48035;BME280;33812;46.480;6.834;2023-01-28T10:24:47;93730.00;;;19.04;28.14
48035;BME280;33812;46.480;6.834;2023-01-28T10:28:56;93738.69;;;19.02;27.72
48035;BME280;33812;46.480;6.834;2023-01-28T10:33:02;93729.31;;;19.00;28.06
48035;BME280;33812;46.480;6.834;2023-01-28T10:37:04;93741.44;;;19.02;28.22
48035;BME280;33812;46.480;6.834;2023-01-28T10:41:12;93736.78;;;18.99;28.16
48035;BME280;33812;46.480;6.834;2023-01-28T10:45:20;93732.81;;;19.00;28.27
48035;BME280;33812;46.480;6.834;2023-01-28T10:49:26;93734.03;;;18.99;28.29
48035;BME280;33812;46.480;6.834;2023-01-28T10:53:35;93734.81;;;19.00;27.96
48035;BME280;33812;46.480;6.834;2023-01-28T10:57:42;93730.84;;;19.01;28.67
48035;BME280;33812;46.480;6.834;2023-01-28T11:01:45;93730.50;;;18.99;28.24
48035;BME280;33812;46.480;6.834;2023-01-28T11:05:51;93740.75;;;18.98;28.24
48035;BME280;33812;46.480;6.834;2023-01-28T11:09:53;93730.06;;;19.00;28.15
48035;BME280;33812;46.480;6.834;2023-01-28T11:14:02;93737.22;;;18.97;28.32
48035;BME280;33812;46.480;6.834;2023-01-28T11:18:05;93737.16;;;19.01;28.32
48035;BME280;33812;46.480;6.834;2023-01-28T11:22:22;93742.28;;;18.99;28.09
48035;BME280;33812;46.480;6.834;2023-01-28T11:26:29;93734.81;;;19.00;27.95
48035;BME280;33812;46.480;6.834;2023-01-28T11:30:36;93740.25;;;19.03;28.84
48035;BME280;33812;46.480;6.834;2023-01-28T11:34:47;93745.41;;;19.01;28.90
48035;BME280;33812;46.480;6.834;2023-01-28T11:38:52;93735.94;;;19.02;28.90
48035;BME280;33812;46.480;6.834;2023-01-28T11:42:56;93732.41;;;19.02;28.71
48035;BME280;33812;46.480;6.834;2023-01-28T11:47:23;93731.56;;;19.05;29.27
48035;BME280;33812;46.480;6.834;2023-01-28T11:51:35;93717.88;;;19.01;29.20
48035;BME280;33812;46.480;6.834;2023-01-28T11:55:47;93735.44;;;19.07;29.29
48035;BME280;33812;46.480;6.834;2023-01-28T12:00:09;93724.41;;;19.07;29.61
48035;BME280;33812;46.480;6.834;2023-01-28T12:04:24;93722.88;;;19.06;30.14
48035;BME280;33812;46.480;6.834;2023-01-28T12:08:39;93728.75;;;19.08;30.09
48035;BME280;33812;46.480;6.834;2023-01-28T12:12:57;93729.16;;;19.07;29.29
48035;BME280;33812;46.480;6.834;2023-01-28T12:17:12;93734.69;;;19.07;29.78
48035;BME280;33812;46.480;6.834;2023-01-28T12:21:30;93730.34;;;19.06;30.22
48035;BME280;33812;46.480;6.834;2023-01-28T12:25:45;93731.94;;;19.07;29.84
48035;BME280;33812;46.480;6.834;2023-01-28T12:29:55;93733.81;;;19.10;29.74
48035;BME280;33812;46.480;6.834;2023-01-28T12:34:31;93738.63;;;19.06;30.02
48035;BME280;33812;46.480;6.834;2023-01-28T12:38:47;93734.69;;;19.07;30.02
48035;BME280;33812;46.480;6.834;2023-01-28T12:42:54;93728.38;;;19.06;30.26
48035;BME280;33812;46.480;6.834;2023-01-28T12:47:01;93729.50;;;19.09;30.26
48035;BME280;33812;46.480;6.834;2023-01-28T12:51:10;93731.44;;;19.12;29.91
48035;BME280;33812;46.480;6.834;2023-01-28T12:55:18;93734.09;;;19.16;29.29
48035;BME280;33812;46.480;6.834;2023-01-28T12:59:27;93741.53;;;19.19;29.10
48035;BME280;33812;46.480;6.834;2023-01-28T13:03:35;93746.63;;;19.20;29.17
48035;BME280;33812;46.480;6.834;2023-01-28T13:07:43;93754.47;;;19.22;28.96
48035;BME280;33812;46.480;6.834;2023-01-28T13:11:51;93757.72;;;19.17;29.19
48035;BME280;33812;46.480;6.834;2023-01-28T13:15:54;93762.81;;;19.18;29.52
48035;BME280;33812;46.480;6.834;2023-01-28T13:19:57;93758.75;;;19.23;29.46
48035;BME280;33812;46.480;6.834;2023-01-28T13:24:18;93761.88;;;19.25;29.49
48035;BME280;33812;46.480;6.834;2023-01-28T13:28:27;93769.28;;;19.28;29.58
48035;BME280;33812;46.480;6.834;2023-01-28T13:32:31;93775.56;;;19.29;30.12
48035;BME280;33812;46.480;6.834;2023-01-28T13:36:36;93773.97;;;19.31;30.19
48035;BME280;33812;46.480;6.834;2023-01-28T13:40:39;93782.13;;;19.35;30.60
48035;BME280;33812;46.480;6.834;2023-01-28T13:44:43;93777.31;;;19.39;30.37
48035;BME280;33812;46.480;6.834;2023-01-28T13:48:48;93792.31;;;19.38;30.74
48035;BME280;33812;46.480;6.834;2023-01-28T13:52:55;93790.59;;;19.44;31.22
48035;BME280;33812;46.480;6.834;2023-01-28T13:57:15;93791.88;;;19.40;30.75
48035;BME280;33812;46.480;6.834;2023-01-28T14:01:44;93795.41;;;19.40;30.64
48035;BME280;33812;46.480;6.834;2023-01-28T14:06:05;93800.53;;;19.42;30.74
48035;BME280;33812;46.480;6.834;2023-01-28T14:10:41;93804.75;;;19.47;31.31
48035;BME280;33812;46.480;6.834;2023-01-28T14:15:06;93803.19;;;19.45;31.22
48035;BME280;33812;46.480;6.834;2023-01-28T14:19:12;93803.97;;;19.46;30.63
48035;BME280;33812;46.480;6.834;2023-01-28T14:23:16;93815.41;;;19.44;30.26
48035;BME280;33812;46.480;6.834;2023-01-28T14:27:24;93816.63;;;19.43;30.11
48035;BME280;33812;46.480;6.834;2023-01-28T14:31:31;93811.47;;;19.45;30.78
48035;BME280;33812;46.480;6.834;2023-01-28T14:35:37;93810.63;;;19.49;30.60
48035;BME280;33812;46.480;6.834;2023-01-28T14:39:43;93818.81;;;19.52;31.32
48035;BME280;33812;46.480;6.834;2023-01-28T14:43:46;93821.56;;;19.52;31.08
48035;BME280;33812;46.480;6.834;2023-01-28T14:48:00;93816.06;;;19.52;30.77
48035;BME280;33812;46.480;6.834;2023-01-28T14:52:22;93815.19;;;19.55;31.25
48035;BME280;33812;46.480;6.834;2023-01-28T14:56:39;93821.56;;;19.52;31.20
48035;BME280;33812;46.480;6.834;2023-01-28T15:00:52;93823.47;;;19.55;31.50
48035;BME280;33812;46.480;6.834;2023-01-28T15:04:54;93828.34;;;17.83;26.21
48035;BME280;33812;46.480;6.834;2023-01-28T15:09:12;93828.41;;;15.76;25.87
48035;BME280;33812;46.480;6.834;2023-01-28T15:13:17;93831.59;;;18.02;25.79
48035;BME280;33812;46.480;6.834;2023-01-28T15:17:25;93840.53;;;18.61;26.44
48035;BME280;33812;46.480;6.834;2023-01-28T15:21:29;93840.66;;;18.78;26.71
48035;BME280;33812;46.480;6.834;2023-01-28T15:25:32;93835.72;;;18.90;26.72
48035;BME280;33812;46.480;6.834;2023-01-28T15:29:36;93846.59;;;18.97;27.16
48035;BME280;33812;46.480;6.834;2023-01-28T15:33:38;93843.09;;;18.96;27.50
48035;BME280;33812;46.480;6.834;2023-01-28T15:37:40;93853.19;;;19.03;27.61
48035;BME280;33812;46.480;6.834;2023-01-28T15:41:46;93853.19;;;19.03;28.01
48035;BME280;33812;46.480;6.834;2023-01-28T15:45:52;93854.31;;;19.06;28.12
48035;BME280;33812;46.480;6.834;2023-01-28T15:49:58;93858.22;;;19.08;28.50
48035;BME280;33812;46.480;6.834;2023-01-28T15:54:03;93872.66;;;19.16;27.92
48035;BME280;33812;46.480;6.834;2023-01-28T15:58:26;93877.03;;;19.14;28.41
48035;BME280;33812;46.480;6.834;2023-01-28T16:02:30;93881.41;;;19.11;28.76
48035;BME280;33812;46.480;6.834;2023-01-28T16:06:35;93881.69;;;19.17;28.71
48035;BME280;33812;46.480;6.834;2023-01-28T16:10:38;93880.91;;;19.16;29.13
48035;BME280;33812;46.480;6.834;2023-01-28T16:14:43;93882.53;;;19.14;29.13
48035;BME280;33812;46.480;6.834;2023-01-28T16:18:46;93886.84;;;19.15;28.99
48035;BME280;33812;46.480;6.834;2023-01-28T16:22:54;93891.88;;;19.20;29.03
48035;BME280;33812;46.480;6.834;2023-01-28T16:26:57;93899.00;;;19.17;28.98
48035;BME280;33812;46.480;6.834;2023-01-28T16:31:04;93902.53;;;19.18;28.87
48035;BME280;33812;46.480;6.834;2023-01-28T16:35:12;93899.78;;;19.18;28.95
48035;BME280;33812;46.480;6.834;2023-01-28T16:39:15;93903.38;;;19.15;29.18
48035;BME280;33812;46.480;6.834;2023-01-28T16:43:17;93909.66;;;19.15;29.13
48035;BME280;33812;46.480;6.834;2023-01-28T16:47:21;93910.44;;;19.16;29.38
48035;BME280;33812;46.480;6.834;2023-01-28T16:51:24;93909.25;;;19.17;29.29
48035;BME280;33812;46.480;6.834;2023-01-28T16:55:26;93917.16;;;19.15;29.29
48035;BME280;33812;46.480;6.834;2023-01-28T16:59:28;93928.91;;;19.19;29.64
48035;BME280;33812;46.480;6.834;2023-01-28T17:03:31;93928.03;;;19.22;29.41
48035;BME280;33812;46.480;6.834;2023-01-28T17:07:33;93941.59;;;19.13;28.72
48035;BME280;33812;46.480;6.834;2023-01-28T17:11:35;93939.56;;;19.17;28.42
48035;BME280;33812;46.480;6.834;2023-01-28T17:15:36;93943.84;;;19.18;28.58
48035;BME280;33812;46.480;6.834;2023-01-28T17:19:40;93949.38;;;19.18;30.00
48035;BME280;33812;46.480;6.834;2023-01-28T17:23:42;93949.41;;;19.14;29.65
48035;BME280;33812;46.480;6.834;2023-01-28T17:27:47;93950.22;;;19.15;29.37
48035;BME280;33812;46.480;6.834;2023-01-28T17:31:49;93955.66;;;19.18;29.97
48035;BME280;33812;46.480;6.834;2023-01-28T17:35:52;93948.66;;;19.14;30.19
48035;BME280;33812;46.480;6.834;2023-01-28T17:39:55;93960.75;;;19.20;30.74
48035;BME280;33812;46.480;6.834;2023-01-28T17:44:02;93965.06;;;19.21;30.80
48035;BME280;33812;46.480;6.834;2023-01-28T17:48:05;93962.66;;;19.23;30.98
48035;BME280;33812;46.480;6.834;2023-01-28T17:52:08;93974.53;;;19.20;30.45
48035;BME280;33812;46.480;6.834;2023-01-28T17:56:14;93980.81;;;19.20;30.46
48035;BME280;33812;46.480;6.834;2023-01-28T18:00:19;93978.06;;;19.20;31.06
48035;BME280;33812;46.480;6.834;2023-01-28T18:04:21;93985.53;;;19.20;30.83
48035;BME280;33812;46.480;6.834;2023-01-28T18:08:26;93989.44;;;19.23;30.84
48035;BME280;33812;46.480;6.834;2023-01-28T18:12:27;93987.50;;;19.19;30.89
48035;BME280;33812;46.480;6.834;2023-01-28T18:16:29;93986.38;;;19.17;30.08
48035;BME280;33812;46.480;6.834;2023-01-28T18:20:32;93993.03;;;19.19;30.98
48035;BME280;33812;46.480;6.834;2023-01-28T18:24:43;94001.28;;;19.19;30.84
48035;BME280;33812;46.480;6.834;2023-01-28T18:28:46;94004.47;;;19.18;30.68
48035;BME280;33812;46.480;6.834;2023-01-28T18:32:48;94004.09;;;19.16;31.06
48035;BME280;33812;46.480;6.834;2023-01-28T18:36:50;94008.31;;;19.24;32.46
48035;BME280;33812;46.480;6.834;2023-01-28T18:40:54;94013.41;;;19.26;32.23
48035;BME280;33812;46.480;6.834;2023-01-28T18:44:57;94014.19;;;19.26;32.67
48035;BME280;33812;46.480;6.834;2023-01-28T18:48:59;94014.19;;;19.26;32.73
48035;BME280;33812;46.480;6.834;2023-01-28T18:53:02;94016.53;;;19.28;33.07
48035;BME280;33812;46.480;6.834;2023-01-28T18:57:12;94020.88;;;19.25;32.91
48035;BME280;33812;46.480;6.834;2023-01-28T19:01:13;94023.22;;;19.27;32.77
48035;BME280;33812;46.480;6.834;2023-01-28T19:05:17;94025.91;;;19.30;33.35
48035;BME280;33812;46.480;6.834;2023-01-28T19:09:29;94017.28;;;19.28;32.87
48035;BME280;33812;46.480;6.834;2023-01-28T19:13:38;94013.78;;;19.28;32.80
48035;BME280;33812;46.480;6.834;2023-01-28T19:17:40;94025.56;;;19.28;33.06
48035;BME280;33812;46.480;6.834;2023-01-28T19:21:43;94025.13;;;19.30;32.80
48035;BME280;33812;46.480;6.834;2023-01-28T19:25:45;94022.38;;;19.30;32.65
48035;BME280;33812;46.480;6.834;2023-01-28T19:29:48;94032.22;;;19.31;32.89
48035;BME280;33812;46.480;6.834;2023-01-28T19:33:53;94024.72;;;19.31;32.87
48035;BME280;33812;46.480;6.834;2023-01-28T19:37:55;94025.50;;;19.32;32.59
48035;BME280;33812;46.480;6.834;2023-01-28T19:41:57;94034.97;;;19.31;32.38
48035;BME280;33812;46.480;6.834;2023-01-28T19:46:04;94044.03;;;19.31;32.42
48035;BME280;33812;46.480;6.834;2023-01-28T19:50:08;94040.91;;;19.29;32.30
48035;BME280;33812;46.480;6.834;2023-01-28T19:54:09;94043.66;;;19.29;32.29
48035;BME280;33812;46.480;6.834;2023-01-28T19:58:11;94037.72;;;19.31;32.20
48035;BME280;33812;46.480;6.834;2023-01-28T20:02:14;94042.81;;;19.32;32.22
48035;BME280;33812;46.480;6.834;2023-01-28T20:06:17;94042.81;;;19.32;32.12
48035;BME280;33812;46.480;6.834;2023-01-28T20:10:20;94047.97;;;19.30;31.92
48035;BME280;33812;46.480;6.834;2023-01-28T20:14:36;94055.69;;;19.39;31.72
48035;BME280;33812;46.480;6.834;2023-01-28T20:18:47;94056.34;;;19.23;31.57
48035;BME280;33812;46.480;6.834;2023-01-28T20:22:51;94051.56;;;19.27;31.34
48035;BME280;33812;46.480;6.834;2023-01-28T20:27:03;94064.91;;;19.29;31.13
48035;BME280;33812;46.480;6.834;2023-01-28T20:31:08;94059.41;;;19.29;31.01
48035;BME280;33812;46.480;6.834;2023-01-28T20:35:12;94064.50;;;19.30;31.24
48035;BME280;33812;46.480;6.834;2023-01-28T20:39:14;94069.31;;;19.26;31.00
48035;BME280;33812;46.480;6.834;2023-01-28T20:43:15;94073.59;;;19.27;30.88
48035;BME280;33812;46.480;6.834;2023-01-28T20:47:17;94076.00;;;19.25;30.95
48035;BME280;33812;46.480;6.834;2023-01-28T20:51:21;94077.97;;;19.25;31.28
48035;BME280;33812;46.480;6.834;2023-01-28T20:55:23;94072.88;;;19.23;31.31
48035;BME280;33812;46.480;6.834;2023-01-28T20:59:27;94081.94;;;19.24;30.92
48035;BME280;33812;46.480;6.834;2023-01-28T21:03:32;94078.38;;;19.23;30.98
48035;BME280;33812;46.480;6.834;2023-01-28T21:07:35;94089.41;;;19.23;31.09
48035;BME280;33812;46.480;6.834;2023-01-28T21:11:37;94085.47;;;19.24;30.96
48035;BME280;33812;46.480;6.834;2023-01-28T21:15:39;94094.16;;;19.23;31.11
48035;BME280;33812;46.480;6.834;2023-01-28T21:19:42;94088.66;;;19.23;30.85
48035;BME280;33812;46.480;6.834;2023-01-28T21:23:45;94090.97;;;19.24;31.05
48035;BME280;33812;46.480;6.834;2023-01-28T21:27:47;94101.28;;;19.20;30.67
48035;BME280;33812;46.480;6.834;2023-01-28T21:31:49;94101.63;;;19.22;31.05
48035;BME280;33812;46.480;6.834;2023-01-28T21:35:50;94113.50;;;19.19;30.97
48035;BME280;33812;46.480;6.834;2023-01-28T21:39:53;94103.59;;;19.21;30.96
48035;BME280;33812;46.480;6.834;2023-01-28T21:43:56;94092.22;;;19.19;30.77
48035;BME280;33812;46.480;6.834;2023-01-28T21:47:58;94097.34;;;19.21;30.52
48035;BME280;33812;46.480;6.834;2023-01-28T21:51:59;94095.75;;;19.20;30.29